Terminal Aerodrome Forecast
Issued by NWS

Home | Current Version | Previous Version | Text Only | Print | Product List | Glossary On
Versions: 1 2 3 4 5 6 7 8 9 10 11 12 13
000
FTUS43 KABR 251700
TAFPIR
TAF
KPIR 251728Z 2518/2618 13006KT P6SM SKC
     FM260100 13010KT P6SM SKC WS018/18035KT
     FM261500 17015G25KT P6SM SKC=

USA.gov is the U.S. government's official web portal to all federal, state and local government web resources and services.